Time;durP1;ratioP1;P1;durP2;ratioP2;P2;SDS_P1;SDS_P2;PMS_P1;PMS_P2;Temp;Humidity;BMP_temperature;BMP_pressure;BME280_temperature;BME280_humidity;BME280_pressure;Samples;Min_cycle;Max_cycle;Signal;HPM_P1;HPM_P2
2022/05/18 00:00:48;;;;;;;10.20;5.67;;;16.90;82.40;;;;;;4998719;28;20481;-83
2022/05/18 00:03:17;;;;;;;6.03;3.83;;;16.80;83.20;;;;;;4998942;28;20456;-83
2022/05/18 00:05:45;;;;;;;8.63;5.20;;;16.80;84.20;;;;;;4998555;28;20858;-85
2022/05/18 00:08:15;;;;;;;5.70;4.57;;;16.70;86.20;;;;;;4998435;28;20463;-83
2022/05/18 00:10:46;;;;;;;7.10;5.00;;;16.50;88.90;;;;;;4989909;28;20461;-84
2022/05/18 00:13:13;;;;;;;9.60;5.27;;;16.60;90.00;;;;;;4979221;28;20482;-83
2022/05/18 00:15:40;;;;;;;6.30;5.53;;;16.50;90.80;;;;;;4990426;28;20484;-84
2022/05/18 00:18:08;;;;;;;7.27;6.23;;;16.40;91.80;;;;;;4997996;28;20480;-85
2022/05/18 00:20:34;;;;;;;9.40;5.17;;;16.40;92.40;;;;;;4982859;28;20461;-83
2022/05/18 00:23:05;;;;;;;7.50;6.80;;;16.30;92.30;;;;;;4978795;28;20469;-84
2022/05/18 00:25:34;;;;;;;8.33;7.53;;;16.20;93.50;;;;;;4993607;28;20475;-83
2022/05/18 00:28:02;;;;;;;14.53;13.33;;;16.10;94.30;;;;;;4998168;28;20457;-83
2022/05/18 00:30:31;;;;;;;13.07;12.07;;;16.10;97.20;;;;;;4983241;28;20460;-83
2022/05/18 00:33:03;;;;;;;14.77;13.57;;;16.00;97.80;;;;;;4978790;28;20464;-84
2022/05/18 00:35:30;;;;;;;16.77;15.67;;;16.10;98.80;;;;;;4991876;28;20628;-84
2022/05/18 00:37:57;;;;;;;17.53;16.17;;;16.00;99.50;;;;;;4997777;28;20867;-83
2022/05/18 00:40:25;;;;;;;16.67;15.67;;;15.80;99.90;;;;;;4985464;28;20462;-83
2022/05/18 00:42:52;;;;;;;22.07;20.77;;;15.90;99.90;;;;;;4978358;28;20456;-83
2022/05/18 00:45:21;;;;;;;22.20;20.90;;;15.80;99.90;;;;;;4988584;28;20456;-82
2022/05/18 00:47:48;;;;;;;27.70;26.20;;;15.70;99.90;;;;;;4997541;28;20462;-83
2022/05/18 00:50:17;;;;;;;38.30;36.40;;;15.80;99.90;;;;;;4987900;28;20455;-84
2022/05/18 00:52:48;;;;;;;36.07;34.13;;;15.70;99.90;;;;;;4978166;28;20489;-85
2022/05/18 00:55:21;;;;;;;45.60;43.70;;;15.70;99.90;;;;;;4986056;28;20453;-83
2022/05/18 00:57:53;;;;;;;53.10;50.47;;;15.70;99.90;;;;;;4982700;28;20453;-83
2022/05/18 01:00:21;;;;;;;38.90;37.00;;;15.80;99.90;;;;;;4986154;28;20447;-83
2022/05/18 01:02:55;;;;;;;56.53;54.07;;;15.60;99.90;;;;;;4997606;28;20840;-83
2022/05/18 01:05:27;;;;;;;58.73;56.13;;;15.60;99.90;;;;;;4988383;28;20459;-83
2022/05/18 01:07:58;;;;;;;65.63;62.93;;;15.60;99.90;;;;;;4977747;28;20459;-83
2022/05/18 01:10:25;;;;;;;77.40;74.37;;;15.60;99.90;;;;;;4991544;28;20456;-83
2022/05/18 01:12:52;;;;;;;75.43;72.23;;;15.50;99.90;;;;;;4997394;28;20459;-84
2022/05/18 01:15:21;;;;;;;79.77;76.67;;;15.50;99.90;;;;;;4983454;28;20475;-82
2022/05/18 01:17:53;;;;;;;72.63;69.73;;;15.60;99.90;;;;;;4983670;28;20461;-84
2022/05/18 01:20:24;;;;;;;93.73;90.23;;;15.60;99.90;;;;;;4996698;28;20482;-84
2022/05/18 01:23:01;;;;;;;81.60;77.90;;;15.50;99.90;;;;;;4991379;28;20962;-83
2022/05/18 01:25:44;;;;;;;103.67;99.87;;;15.60;99.90;;;;;;4978014;28;21141;-85
2022/05/18 01:28:13;;;;;;;96.67;93.00;;;15.60;99.90;;;;;;4978637;28;20949;-82
2022/05/18 01:30:45;;;;;;;88.67;85.27;;;15.70;99.90;;;;;;4978018;28;20463;-83
2022/05/18 01:33:13;;;;;;;92.80;89.10;;;15.70;99.90;;;;;;4980491;28;20481;-83
2022/05/18 01:35:43;;;;;;;81.37;78.17;;;15.60;99.90;;;;;;4978191;28;20483;-84
2022/05/18 01:38:12;;;;;;;73.97;71.20;;;15.70;99.90;;;;;;4986643;28;20490;-83
2022/05/18 01:40:46;;;;;;;70.23;67.43;;;15.70;99.90;;;;;;4997426;28;20495;-83
2022/05/18 01:43:18;;;;;;;81.43;78.33;;;15.60;99.90;;;;;;4987090;28;20454;-83
2022/05/18 01:45:53;;;;;;;59.13;56.20;;;15.70;99.90;;;;;;4977610;28;20482;-83
2022/05/18 01:48:23;;;;;;;51.80;49.30;;;15.80;99.90;;;;;;4986363;28;20835;-84
2022/05/18 01:50:58;;;;;;;52.40;50.10;;;15.80;99.90;;;;;;4997060;28;20542;-83
2022/05/18 01:53:26;;;;;;;38.87;35.90;;;15.80;99.90;;;;;;4986826;28;20460;-83
2022/05/18 01:55:54;;;;;;;46.33;44.10;;;15.80;99.90;;;;;;4976831;28;20492;-83
2022/05/18 01:58:22;;;;;;;46.60;44.10;;;15.80;99.90;;;;;;4977602;28;20864;-83
2022/05/18 02:00:49;;;;;;;50.63;48.40;;;15.60;99.90;;;;;;4977730;28;20444;-83
2022/05/18 02:03:20;;;;;;;61.80;59.40;;;15.60;99.90;;;;;;4984833;28;20884;-83
2022/05/18 02:05:47;;;;;;;61.60;59.00;;;15.60;99.90;;;;;;4996821;28;20943;-84
2022/05/18 02:08:18;;;;;;;83.93;80.53;;;15.40;99.90;;;;;;4989233;28;20542;-82
2022/05/18 02:10:45;;;;;;;77.33;73.90;;;15.40;99.90;;;;;;4976664;28;20456;-83
2022/05/18 02:13:14;;;;;;;88.77;85.37;;;15.30;99.90;;;;;;4982826;28;20458;-83
2022/05/18 02:15:43;;;;;;;103.20;98.77;;;15.30;99.90;;;;;;4997000;28;20472;-83
2022/05/18 02:18:12;;;;;;;113.23;109.23;;;15.30;99.90;;;;;;4991216;28;20453;-83
2022/05/18 02:20:39;;;;;;;136.47;131.47;;;15.30;99.90;;;;;;4976644;28;20511;-84
2022/05/18 02:23:06;;;;;;;172.53;166.43;;;15.10;99.90;;;;;;4979832;28;20461;-83
2022/05/18 02:25:33;;;;;;;144.17;139.30;;;15.10;99.90;;;;;;4996222;28;21023;-83
2022/05/18 02:28:01;;;;;;;170.87;164.77;;;15.10;99.90;;;;;;4993640;28;20983;-83
2022/05/18 02:30:28;;;;;;;206.60;199.20;;;15.20;99.90;;;;;;4976202;28;20945;-84
2022/05/18 02:32:58;;;;;;;221.07;213.37;;;15.00;99.90;;;;;;4976955;28;20462;-84
2022/05/18 02:35:29;;;;;;;226.60;218.37;;;15.00;99.90;;;;;;4996290;28;21011;-83
2022/05/18 02:37:56;;;;;;;214.87;206.87;;;15.00;99.90;;;;;;4995283;28;20500;-84
2022/05/18 02:40:23;;;;;;;205.80;198.40;;;15.10;99.90;;;;;;4995831;28;20486;-83
2022/05/18 02:42:53;;;;;;;199.67;192.70;;;15.20;99.90;;;;;;4996051;28;20456;-84
2022/05/18 02:45:20;;;;;;;184.37;177.70;;;15.20;99.90;;;;;;4977329;28;20550;-83
2022/05/18 02:47:50;;;;;;;145.57;139.90;;;15.30;99.90;;;;;;4980566;28;20541;-83
2022/05/18 02:50:20;;;;;;;146.53;141.13;;;15.30;99.90;;;;;;4996979;28;20456;-83
2022/05/18 02:52:51;;;;;;;159.17;152.90;;;15.30;99.90;;;;;;4996167;28;20606;-83
2022/05/18 02:58:03;;;;;;;150.87;145.50;;;15.30;99.90;;;;;;4986096;28;20449;-83
2022/05/18 03:00:29;;;;;;;157.93;152.33;;;15.30;99.90;;;;;;4999921;28;20482;-84
2022/05/18 03:02:56;;;;;;;169.33;163.33;;;15.20;99.90;;;;;;4995609;28;20458;-83
2022/05/18 03:05:27;;;;;;;177.53;171.23;;;15.30;99.90;;;;;;4980295;28;20953;-83
2022/05/18 03:07:54;;;;;;;161.83;155.60;;;15.30;99.90;;;;;;4983140;28;20847;-84
2022/05/18 03:10:24;;;;;;;160.23;154.17;;;15.30;99.90;;;;;;4999627;28;20657;-84
2022/05/18 03:12:53;;;;;;;146.00;140.90;;;15.20;99.90;;;;;;4998814;28;20460;-84
2022/05/18 03:15:20;;;;;;;138.83;133.97;;;15.30;99.90;;;;;;4999550;28;20463;-84
2022/05/18 03:17:49;;;;;;;146.80;141.50;;;15.30;99.90;;;;;;4983845;28;20456;-84
2022/05/18 03:25:43;;;;;;;177.10;170.70;;;15.10;99.90;;;;;;4970816;28;20463;-84
2022/05/18 03:28:10;;;;;;;202.73;195.90;;;15.10;99.90;;;;;;4987698;28;21289;-82
2022/05/18 03:30:36;;;;;;;196.10;189.23;;;15.00;99.90;;;;;;4989565;28;21117;-82
2022/05/18 03:33:03;;;;;;;201.40;194.27;;;15.00;99.90;;;;;;4994435;28;21025;-82
2022/05/18 03:35:31;;;;;;;206.23;199.00;;;14.90;99.90;;;;;;4988431;28;20518;-82
2022/05/18 03:37:59;;;;;;;264.87;255.50;;;14.90;99.90;;;;;;4981337;28;20467;-82
2022/05/18 03:40:26;;;;;;;243.57;234.87;;;14.90;99.90;;;;;;4961981;29;20952;-80
2022/05/18 03:42:53;;;;;;;253.73;244.70;;;14.80;99.90;;;;;;4965931;29;20465;-80
2022/05/18 03:45:20;;;;;;;254.13;244.93;;;14.80;99.90;;;;;;4981293;28;20455;-82
2022/05/18 03:47:46;;;;;;;223.60;216.00;;;14.80;99.90;;;;;;4986538;28;20458;-80
2022/05/18 03:50:13;;;;;;;222.63;215.03;;;14.70;99.90;;;;;;4987619;28;20474;-81
2022/05/18 03:52:40;;;;;;;240.87;232.63;;;14.50;99.90;;;;;;4983970;28;20463;-80
2022/05/18 03:55:09;;;;;;;270.30;260.60;;;14.40;99.90;;;;;;4981600;28;20882;-80
2022/05/18 03:57:36;;;;;;;377.93;362.43;;;14.40;99.90;;;;;;4983958;28;20473;-81
2022/05/18 04:00:04;;;;;;;391.57;375.17;;;14.40;99.90;;;;;;4983708;28;20482;-80
2022/05/18 04:02:31;;;;;;;453.87;433.80;;;14.40;99.90;;;;;;4982081;28;20448;-81
2022/05/18 04:04:58;;;;;;;408.47;390.40;;;14.40;99.90;;;;;;4985288;28;20455;-80
2022/05/18 04:07:25;;;;;;;378.97;362.57;;;14.50;99.90;;;;;;4983655;28;20478;-80
2022/05/18 04:09:51;;;;;;;366.27;350.27;;;14.50;99.90;;;;;;4983168;28;20960;-80
2022/05/18 04:12:19;;;;;;;382.73;366.00;;;14.70;99.90;;;;;;4983028;28;20459;-81
2022/05/18 04:14:46;;;;;;;307.50;294.47;;;14.80;99.90;;;;;;4978529;28;20988;-80
2022/05/18 04:17:13;;;;;;;308.53;296.57;;;14.80;99.90;;;;;;4978177;28;20486;-80
2022/05/18 04:19:40;;;;;;;303.70;291.80;;;14.60;99.90;;;;;;4980557;28;20487;-81
2022/05/18 04:22:06;;;;;;;328.77;315.67;;;14.60;99.90;;;;;;4979755;28;20455;-81
2022/05/18 04:24:33;;;;;;;311.37;299.07;;;14.60;99.90;;;;;;4978491;28;20458;-80
2022/05/18 04:27:00;;;;;;;292.67;280.57;;;14.60;99.90;;;;;;4962729;29;20481;-80
2022/05/18 04:29:28;;;;;;;317.50;304.50;;;14.50;99.90;;;;;;4960616;29;20842;-80
2022/05/18 04:31:55;;;;;;;340.83;326.70;;;14.60;99.90;;;;;;4961106;29;20468;-80
2022/05/18 04:34:22;;;;;;;351.50;336.47;;;14.70;99.90;;;;;;4965907;29;20461;-81
2022/05/18 04:36:49;;;;;;;392.60;375.07;;;14.60;99.90;;;;;;4967998;28;20476;-80
2022/05/18 04:39:15;;;;;;;426.90;407.10;;;14.70;99.90;;;;;;4965476;29;20452;-80
2022/05/18 04:41:42;;;;;;;392.40;374.57;;;14.90;99.90;;;;;;4967649;29;20471;-80
2022/05/18 04:44:09;;;;;;;383.80;366.10;;;14.90;99.90;;;;;;4961662;29;20453;-83
2022/05/18 04:46:37;;;;;;;348.77;333.03;;;15.00;99.90;;;;;;4961792;29;20481;-83
2022/05/18 04:49:04;;;;;;;338.70;323.70;;;15.20;99.90;;;;;;4962465;29;20461;-81
2022/05/18 04:51:31;;;;;;;307.63;293.87;;;15.30;99.90;;;;;;4961502;29;20471;-82
2022/05/18 04:53:57;;;;;;;294.37;281.53;;;15.30;99.90;;;;;;4961597;29;20453;-82
2022/05/18 04:56:25;;;;;;;282.53;271.23;;;15.50;99.90;;;;;;4963090;29;21005;-82
2022/05/18 04:58:52;;;;;;;268.20;257.03;;;15.50;99.90;;;;;;4962953;29;20470;-82
2022/05/18 05:01:19;;;;;;;256.53;246.33;;;15.60;99.90;;;;;;4965385;28;20476;-82
2022/05/18 05:03:47;;;;;;;250.90;240.77;;;15.60;99.90;;;;;;4981775;28;20457;-82
2022/05/18 05:06:14;;;;;;;244.90;235.40;;;15.80;99.90;;;;;;4982581;28;20480;-83
2022/05/18 05:08:41;;;;;;;208.07;199.70;;;15.80;99.90;;;;;;4980329;28;20980;-81
2022/05/18 05:11:08;;;;;;;205.93;198.03;;;16.10;99.90;;;;;;4981708;28;20457;-82
2022/05/18 05:13:35;;;;;;;175.60;169.27;;;16.20;99.90;;;;;;4980425;28;20464;-81
2022/05/18 05:16:04;;;;;;;187.27;180.60;;;16.40;99.90;;;;;;4981689;28;20479;-81
2022/05/18 05:18:31;;;;;;;153.53;147.93;;;16.40;99.90;;;;;;4983111;28;20459;-80
2022/05/18 05:20:59;;;;;;;130.50;125.90;;;16.50;99.90;;;;;;4986916;28;20488;-81
2022/05/18 05:23:26;;;;;;;119.87;115.30;;;16.70;99.90;;;;;;4986514;28;20453;-80
2022/05/18 05:25:54;;;;;;;32.47;30.70;;;16.90;99.90;;;;;;4984650;28;20485;-81
2022/05/18 05:28:21;;;;;;;9.40;8.60;;;17.50;99.90;;;;;;4987824;28;20830;-80
2022/05/18 05:30:49;;;;;;;9.37;5.13;;;18.00;99.90;;;;;;4981707;28;20448;-81
2022/05/18 05:33:15;;;;;;;12.10;5.50;;;18.50;98.40;;;;;;4982388;28;20805;-80
2022/05/18 05:35:42;;;;;;;7.27;4.60;;;19.10;92.90;;;;;;4981179;28;20482;-80
2022/05/18 05:38:12;;;;;;;8.20;4.20;;;19.60;89.60;;;;;;4982970;28;20451;-81
2022/05/18 05:40:40;;;;;;;9.10;4.90;;;20.30;81.30;;;;;;4985041;28;20476;-81
2022/05/18 05:43:07;;;;;;;6.07;3.50;;;20.60;71.00;;;;;;4979011;28;20456;-82
2022/05/18 05:45:34;;;;;;;8.60;4.30;;;20.80;67.30;;;;;;4980405;28;20486;-82
2022/05/18 05:48:01;;;;;;;7.93;4.10;;;21.10;65.00;;;;;;4981356;28;20465;-82
2022/05/18 05:50:30;;;;;;;10.90;4.67;;;21.40;60.70;;;;;;4980416;28;20462;-83
2022/05/18 05:52:57;;;;;;;5.40;3.67;;;21.50;58.60;;;;;;4977619;28;20483;-82
2022/05/18 05:55:25;;;;;;;7.13;3.43;;;21.80;57.20;;;;;;4979390;28;20478;-82
2022/05/18 05:57:53;;;;;;;5.93;3.60;;;22.10;55.20;;;;;;5015852;23;20493;-80
2022/05/18 06:00:20;;;;;;;8.67;3.63;;;22.30;52.10;;;;;;4997838;28;20483;-82
2022/05/18 06:02:47;;;;;;;7.57;3.53;;;22.50;49.20;;;;;;4999938;28;20453;-83
2022/05/18 06:05:14;;;;;;;8.50;3.67;;;22.60;48.20;;;;;;4997564;28;20845;-82
2022/05/18 06:07:41;;;;;;;6.80;4.40;;;22.70;47.50;;;;;;4986525;28;20478;-83
2022/05/18 06:10:09;;;;;;;7.37;3.90;;;23.00;47.30;;;;;;4976971;28;20464;-81
2022/05/18 06:12:38;;;;;;;8.70;4.20;;;23.00;44.70;;;;;;4977398;28;20480;-80
2022/05/18 06:15:06;;;;;;;8.80;4.40;;;23.30;42.90;;;;;;4978808;28;20562;-85
2022/05/18 06:17:33;;;;;;;8.60;3.60;;;23.40;41.20;;;;;;4978153;28;20485;-80
2022/05/18 06:20:00;;;;;;;8.10;3.97;;;23.50;41.30;;;;;;4976559;28;20478;-81
2022/05/18 06:22:27;;;;;;;9.40;3.50;;;23.70;40.70;;;;;;4975015;28;20470;-82
2022/05/18 06:24:54;;;;;;;6.87;3.77;;;23.70;38.70;;;;;;4975735;28;20458;-83
2022/05/18 06:27:21;;;;;;;7.97;3.23;;;23.90;37.70;;;;;;4976865;28;20479;-81
2022/05/18 06:29:49;;;;;;;8.37;3.60;;;23.80;38.10;;;;;;4975808;28;20461;-82
2022/05/18 06:32:16;;;;;;;7.97;3.27;;;24.00;37.40;;;;;;4976597;28;20462;-81
2022/05/18 06:34:44;;;;;;;9.37;3.07;;;24.20;34.50;;;;;;4976246;28;20539;-84
2022/05/18 06:37:11;;;;;;;7.10;2.87;;;24.30;34.50;;;;;;4977307;28;20845;-82
2022/05/18 06:39:38;;;;;;;6.37;3.67;;;24.40;33.90;;;;;;4986892;28;20539;-83
2022/05/18 06:42:06;;;;;;;7.60;3.13;;;24.50;32.70;;;;;;4978521;28;20430;-83
2022/05/18 06:44:33;;;;;;;10.63;3.37;;;24.60;30.30;;;;;;4978910;28;20875;-83
2022/05/18 06:47:03;;;;;;;13.23;3.30;;;24.70;30.40;;;;;;4977691;28;20482;-82
2022/05/18 06:49:30;;;;;;;8.70;2.97;;;24.90;30.30;;;;;;4976782;28;20490;-80
2022/05/18 06:51:57;;;;;;;7.03;3.30;;;24.80;29.30;;;;;;4977098;28;20955;-82
2022/05/18 06:54:24;;;;;;;9.03;3.60;;;25.00;29.20;;;;;;4977095;28;20989;-83
2022/05/18 06:56:50;;;;;;;12.30;3.30;;;25.20;27.30;;;;;;4980358;28;20509;-83
2022/05/18 06:59:18;;;;;;;8.93;3.40;;;25.20;28.00;;;;;;4976606;28;20450;-83
2022/05/18 07:01:45;;;;;;;8.30;3.20;;;25.30;25.80;;;;;;4966144;28;20481;-82
2022/05/18 07:04:14;;;;;;;6.63;3.30;;;25.40;25.40;;;;;;4995202;28;20462;-83
2022/05/18 07:06:44;;;;;;;8.90;3.13;;;25.70;25.90;;;;;;4982391;28;20472;-80
2022/05/18 07:09:13;;;;;;;6.23;3.20;;;25.80;24.90;;;;;;4990805;28;20458;-79
2022/05/18 07:11:40;;;;;;;7.50;3.40;;;26.10;25.80;;;;;;4985320;28;20453;-80
2022/05/18 07:14:07;;;;;;;7.30;2.97;;;26.30;24.10;;;;;;4992776;28;20458;-80
2022/05/18 07:16:34;;;;;;;7.03;3.03;;;26.30;22.50;;;;;;4992221;28;20460;-80
2022/05/18 07:19:01;;;;;;;11.20;3.17;;;26.40;22.80;;;;;;4990982;28;20454;-80
2022/05/18 07:21:29;;;;;;;8.93;3.63;;;26.60;21.90;;;;;;4972945;28;20482;-80
2022/05/18 07:23:56;;;;;;;7.83;3.07;;;26.40;21.60;;;;;;4972681;28;20959;-80
2022/05/18 07:26:25;;;;;;;9.83;2.90;;;26.20;20.10;;;;;;4990719;28;20459;-80
2022/05/18 07:28:52;;;;;;;6.90;3.53;;;26.10;20.50;;;;;;4991674;28;20535;-80
2022/05/18 07:31:19;;;;;;;6.40;3.00;;;26.30;21.10;;;;;;4975133;28;20479;-80
2022/05/18 07:33:47;;;;;;;5.20;2.40;;;26.40;21.30;;;;;;4972946;28;20500;-80
2022/05/18 07:36:14;;;;;;;9.03;2.80;;;26.20;19.60;;;;;;4987789;28;20461;-79
2022/05/18 07:38:43;;;;;;;9.17;3.00;;;26.40;20.80;;;;;;4986856;28;20450;-80
2022/05/18 07:41:13;;;;;;;7.77;3.13;;;26.30;19.80;;;;;;4980243;28;20474;-80
2022/05/18 07:43:40;;;;;;;7.77;3.30;;;26.20;20.90;;;;;;4987814;28;20489;-80
2022/05/18 07:46:09;;;;;;;8.80;3.30;;;26.00;21.80;;;;;;4976107;28;20454;-80
2022/05/18 07:48:37;;;;;;;5.70;2.70;;;25.90;20.90;;;;;;4975623;28;20458;-80
2022/05/18 07:51:04;;;;;;;8.10;3.10;;;25.60;22.60;;;;;;4995293;28;20823;-80
2022/05/18 07:53:31;;;;;;;6.33;2.60;;;25.60;21.80;;;;;;4995058;28;20458;-79
2022/05/18 07:55:59;;;;;;;11.80;3.37;;;25.60;22.40;;;;;;4988137;28;20462;-80
2022/05/18 07:58:26;;;;;;;7.77;3.27;;;25.70;23.70;;;;;;4975086;28;20991;-80
2022/05/18 08:00:52;;;;;;;6.30;3.00;;;26.10;23.80;;;;;;4975684;28;20489;-80
2022/05/18 08:03:20;;;;;;;10.17;3.27;;;26.30;21.80;;;;;;4991487;28;21290;-80
2022/05/18 08:05:47;;;;;;;9.10;2.90;;;26.70;19.60;;;;;;4975981;28;20465;-80
2022/05/18 08:08:15;;;;;;;8.83;3.10;;;27.00;19.10;;;;;;4986556;28;20822;-79
2022/05/18 08:16:14;;;;;;;7.07;3.50;;;27.80;16.40;;;;;;4975512;28;20446;-80
2022/05/18 08:18:41;;;;;;;5.70;2.37;;;28.20;16.40;;;;;;4980850;28;20450;-80
2022/05/18 08:21:08;;;;;;;10.33;3.17;;;28.30;12.40;;;;;;4995139;28;20553;-80
2022/05/18 08:23:35;;;;;;;9.73;2.97;;;28.60;11.70;;;;;;4989770;28;20455;-80
2022/05/18 08:26:03;;;;;;;7.83;2.70;;;28.40;12.50;;;;;;4983926;28;20435;-80
2022/05/18 08:28:32;;;;;;;8.03;3.10;;;28.60;10.60;;;;;;4993608;28;20464;-80
2022/05/18 08:30:59;;;;;;;8.53;3.30;;;29.10;10.40;;;;;;5001832;28;20458;-82
2022/05/18 08:33:28;;;;;;;8.50;3.23;;;29.20;9.60;;;;;;4982712;28;20463;-83
2022/05/18 08:35:55;;;;;;;6.90;3.00;;;29.50;7.20;;;;;;4983830;28;20459;-83
2022/05/18 08:38:22;;;;;;;6.30;2.30;;;29.60;8.60;;;;;;4991934;28;20521;-82
2022/05/18 08:40:52;;;;;;;8.77;2.70;;;29.80;7.60;;;;;;4988794;28;20473;-83
2022/05/18 08:43:25;;;;;;;9.93;2.90;;;29.80;2.90;;;;;;4997816;28;20449;-85
2022/05/18 08:46:04;;;;;;;10.27;2.50;;;29.20;2.60;;;;;;4999954;28;20424;-85
2022/05/18 08:48:42;;;;;;;6.80;3.07;;;29.40;2.90;;;;;;5000273;28;20474;-85
2022/05/18 08:51:26;;;;;;;6.63;2.57;;;30.30;4.80;;;;;;5000167;28;20479;-82
2022/05/18 08:54:04;;;;;;;9.77;3.00;;;30.10;5.00;;;;;;4998116;28;20451;-84
2022/05/18 08:56:34;;;;;;;5.60;2.37;;;30.70;3.40;;;;;;4996490;28;20497;-84
2022/05/18 08:59:04;;;;;;;5.80;2.70;;;31.10;1.00;;;;;;4998635;28;20458;-83
2022/05/18 09:01:40;;;;;;;6.80;2.70;;;31.40;1.00;;;;;;4988810;28;20474;-83
2022/05/18 09:04:10;;;;;;;5.80;3.23;;;31.50;1.00;;;;;;4990411;28;20457;-82
2022/05/18 09:06:41;;;;;;;6.63;2.60;;;31.10;1.00;;;;;;5002501;28;20477;-83
2022/05/18 09:11:57;;;;;;;8.50;2.60;;;32.20;1.00;;;;;;5000120;28;20852;-83
2022/05/18 09:14:29;;;;;;;8.77;2.70;;;32.40;1.00;;;;;;4993488;28;20436;-83
2022/05/18 09:17:04;;;;;;;7.37;2.70;;;32.60;1.00;;;;;;5000067;28;20473;-83
2022/05/18 09:19:40;;;;;;;6.63;2.50;;;33.10;1.00;;;;;;4990318;28;20458;-86
2022/05/18 09:22:16;;;;;;;5.73;3.40;;;33.00;1.00;;;;;;4979721;28;20506;-82
2022/05/18 09:24:54;;;;;;;6.77;2.97;;;33.20;1.00;;;;;;4987612;28;20460;-83
2022/05/18 09:27:36;;;;;;;8.10;2.90;;;33.20;1.00;;;;;;4985673;28;20448;-83
2022/05/18 09:30:12;;;;;;;8.37;3.40;;;33.50;1.00;;;;;;4999670;28;20439;-83
2022/05/18 09:33:11;;;;;;;5.33;2.50;;;33.60;1.00;;;;;;4995632;28;20451;-82
2022/05/18 09:35:48;;;;;;;6.07;2.77;;;33.90;1.00;;;;;;4980579;28;20456;-83
2022/05/18 09:38:21;;;;;;;7.93;3.00;;;34.10;1.00;;;;;;4982785;28;20478;-81
2022/05/18 09:40:50;;;;;;;9.10;2.43;;;34.00;1.00;;;;;;4992201;28;20454;-83
2022/05/18 09:43:26;;;;;;;7.47;3.20;;;34.00;1.00;;;;;;4982923;28;20451;-83
2022/05/18 09:45:53;;;;;;;6.10;2.70;;;34.20;1.00;;;;;;5000118;28;20467;-82
2022/05/18 09:48:27;;;;;;;7.23;2.83;;;34.80;1.00;;;;;;4999344;28;20455;-83
2022/05/18 09:50:56;;;;;;;5.30;2.63;;;34.70;1.00;;;;;;4998431;28;20460;-83
2022/05/18 09:53:23;;;;;;;5.40;2.50;;;34.80;1.00;;;;;;4980311;28;20870;-83
2022/05/18 09:55:51;;;;;;;5.90;2.40;;;34.90;1.00;;;;;;4980743;28;20437;-83
2022/05/18 09:58:23;;;;;;;5.13;2.40;;;35.40;1.00;;;;;;4980856;28;20855;-82
2022/05/18 10:07:26;;;;;;;5.10;2.30;;;35.30;1.00;;;;;;4974811;28;20796;-83
2022/05/18 10:09:26;;;;;;;5.73;1.93;;;35.40;1.00;;;;;;4992990;28;20435;-82
2022/05/18 10:11:53;;;;;;;7.93;2.40;;;35.40;1.00;;;;;;4988366;28;20883;-82
2022/05/18 10:14:30;;;;;;;6.03;2.50;;;35.40;1.00;;;;;;4973326;28;21064;-82
2022/05/18 10:17:05;;;;;;;5.83;2.17;;;35.30;1.00;;;;;;4977265;28;20488;-83
2022/05/18 10:19:36;;;;;;;6.53;2.93;;;35.90;1.00;;;;;;4995446;28;20449;-83
2022/05/18 10:22:07;;;;;;;7.00;2.30;;;35.90;1.00;;;;;;4978973;28;20426;-83
2022/05/18 10:24:39;;;;;;;5.80;2.60;;;36.40;1.00;;;;;;4976864;28;20906;-82
2022/05/18 10:27:18;;;;;;;5.90;2.70;;;36.30;1.00;;;;;;4987283;28;20449;-83
2022/05/18 10:29:52;;;;;;;5.60;2.80;;;35.70;1.00;;;;;;4991914;28;20451;-82
2022/05/18 10:32:23;;;;;;;9.80;2.60;;;35.30;1.00;;;;;;4977490;28;20449;-83
2022/05/18 10:34:52;;;;;;;6.13;2.60;;;35.00;1.00;;;;;;4974873;28;20440;-83
2022/05/18 10:37:28;;;;;;;6.00;2.37;;;35.60;1.00;;;;;;4992061;28;20473;-85
2022/05/18 10:39:59;;;;;;;5.20;2.23;;;35.60;1.00;;;;;;4973425;28;20845;-83
2022/05/18 10:42:29;;;;;;;7.10;2.43;;;35.20;1.00;;;;;;4974143;28;20451;-83
2022/05/18 10:44:59;;;;;;;5.10;2.30;;;35.00;1.00;;;;;;4991260;28;20458;-82
2022/05/18 10:47:30;;;;;;;6.33;2.10;;;35.40;1.00;;;;;;4979779;28;20820;-83
2022/05/18 10:50:32;;;;;;;5.03;2.20;;;35.70;1.00;;;;;;4992376;28;20854;-84
2022/05/18 10:53:17;;;;;;;5.00;2.07;;;35.90;1.00;;;;;;4930274;29;20476;-83
2022/05/18 10:56:03;;;;;;;7.63;1.73;;;36.00;1.00;;;;;;4983995;28;20818;-82
2022/05/18 10:58:34;;;;;;;4.60;2.10;;;37.20;1.00;;;;;;4973908;28;20836;-81
2022/05/18 11:01:04;;;;;;;5.83;2.00;;;37.40;1.00;;;;;;4991736;28;20436;-78
2022/05/18 11:03:39;;;;;;;5.30;1.93;;;37.30;1.00;;;;;;4994769;28;20454;-78
2022/05/18 11:06:12;;;;;;;5.23;2.20;;;37.80;1.00;;;;;;4982179;28;20801;-79
2022/05/18 11:08:40;;;;;;;5.43;2.23;;;38.20;1.00;;;;;;4974207;28;20430;-79
2022/05/18 11:11:16;;;;;;;5.77;2.40;;;38.20;1.00;;;;;;4987545;28;20992;-79
2022/05/18 11:13:50;;;;;;;5.07;2.00;;;38.40;1.00;;;;;;4997910;28;20428;-79
2022/05/18 11:16:31;;;;;;;6.30;2.07;;;38.60;1.00;;;;;;4997441;28;20966;-79
2022/05/18 11:19:05;;;;;;;7.07;2.90;;;38.90;1.00;;;;;;4997943;28;20439;-79
2022/05/18 11:21:44;;;;;;;4.67;1.70;;;39.10;1.00;;;;;;4983679;28;20436;-79
2022/05/18 11:24:23;;;;;;;6.40;2.40;;;39.00;1.00;;;;;;4979072;28;20910;-79
2022/05/18 11:27:01;;;;;;;4.97;2.03;;;38.90;1.00;;;;;;4981542;28;20975;-79
2022/05/18 11:29:50;;;;;;;8.90;1.97;;;39.30;1.00;;;;;;4978913;28;20450;-79
2022/05/18 11:32:22;;;;;;;8.97;2.20;;;39.30;1.00;;;;;;4960303;29;20484;-79
2022/05/18 11:35:02;;;;;;;5.90;2.07;;;39.50;1.00;;;;;;4964656;28;20443;-79
2022/05/18 11:37:52;;;;;;;7.77;2.00;;;39.40;1.00;;;;;;4996281;28;20915;-79
2022/05/18 11:40:33;;;;;;;5.87;1.83;;;39.40;1.00;;;;;;4959977;29;20434;-79
2022/05/18 11:46:00;;;;;;;7.60;2.97;;;39.10;1.00;;;;;;4988484;28;20605;-79
2022/05/18 11:48:34;;;;;;;5.23;2.33;;;39.30;1.00;;;;;;4977479;28;20474;-78
2022/05/18 11:51:10;;;;;;;4.80;2.00;;;39.60;1.00;;;;;;4979492;28;20425;-79
2022/05/18 11:53:50;;;;;;;5.70;1.57;;;40.00;1.00;;;;;;4989525;28;20424;-79
2022/05/18 11:56:29;;;;;;;5.57;1.70;;;40.30;1.00;;;;;;4987543;28;20840;-81
2022/05/18 11:59:28;;;;;;;4.60;1.97;;;40.40;1.00;;;;;;5007136;23;20464;-85
2022/05/18 12:02:10;;;;;;;4.70;1.90;;;41.10;1.00;;;;;;4985629;28;20441;-85
2022/05/18 12:05:01;;;;;;;6.60;2.20;;;39.60;1.00;;;;;;4982595;28;20432;-85
2022/05/18 12:07:43;;;;;;;4.40;1.50;;;39.90;1.00;;;;;;4987004;28;20474;-85
2022/05/18 12:10:21;;;;;;;5.80;2.17;;;39.60;1.00;;;;;;5005057;28;20842;-85
2022/05/18 12:12:55;;;;;;;6.40;2.20;;;40.50;1.00;;;;;;5022427;28;20491;-85
2022/05/18 12:15:29;;;;;;;5.43;1.90;;;39.40;1.00;;;;;;5021171;28;20820;-86
2022/05/18 12:18:00;;;;;;;6.13;1.80;;;39.60;1.00;;;;;;4985368;28;20440;-83
2022/05/18 12:20:32;;;;;;;4.83;1.83;;;40.00;1.00;;;;;;4998627;28;20432;-84
2022/05/18 12:23:01;;;;;;;5.13;1.63;;;40.40;1.00;;;;;;5000295;28;20422;-85
2022/05/18 12:25:30;;;;;;;4.80;1.90;;;39.90;1.00;;;;;;5002238;28;20436;-85
2022/05/18 12:28:01;;;;;;;5.90;1.80;;;40.90;1.00;;;;;;5001429;28;20448;-84
2022/05/18 12:30:33;;;;;;;4.33;1.80;;;41.70;1.00;;;;;;5000039;28;20469;-84
2022/05/18 12:33:01;;;;;;;5.20;1.73;;;41.70;1.00;;;;;;5002538;28;20480;-84
2022/05/18 12:35:34;;;;;;;5.03;2.13;;;41.50;1.00;;;;;;5002627;28;20453;-84
2022/05/18 12:38:12;;;;;;;4.88;1.90;;;41.60;1.00;;;;;;4995747;28;20451;-85
2022/05/18 12:40:54;;;;;;;7.07;2.10;;;41.80;1.00;;;;;;4976749;28;20207;-86
2022/05/18 12:43:55;;;;;;;4.80;2.40;;;41.70;1.00;;;;;;4976616;28;20548;-85
2022/05/18 12:46:45;;;;;;;5.20;2.10;;;41.20;1.00;;;;;;4976707;28;20453;-85
2022/05/18 12:49:30;;;;;;;7.50;1.77;;;40.80;1.00;;;;;;4976064;28;20463;-85
2022/05/18 12:52:04;;;;;;;5.77;1.80;;;40.10;1.00;;;;;;4976615;28;20985;-85
2022/05/18 12:54:51;;;;;;;5.10;2.17;;;41.00;1.00;;;;;;4976308;28;20459;-85
2022/05/18 12:57:48;;;;;;;5.17;1.90;;;41.20;1.00;;;;;;4977559;28;20486;-86
2022/05/18 13:00:46;;;;;;;6.67;1.67;;;40.70;1.00;;;;;;4976766;28;20471;-88
2022/05/18 13:03:48;;;;;;;6.80;2.13;;;39.60;1.00;;;;;;4972203;28;20459;-86
2022/05/18 13:06:29;;;;;;;4.40;1.47;;;38.30;1.00;;;;;;4977356;28;20439;-84
2022/05/18 13:09:05;;;;;;;6.33;1.83;;;37.50;1.00;;;;;;4979233;28;20449;-85
2022/05/18 13:11:54;;;;;;;5.30;1.53;;;35.80;1.00;;;;;;4978444;28;20458;-85
2022/05/18 13:14:56;;;;;;;4.87;1.90;;;34.80;1.00;;;;;;4976953;28;20445;-85
2022/05/18 13:17:41;;;;;;;5.87;2.10;;;35.10;1.00;;;;;;4979456;28;20548;-85
2022/05/18 13:20:33;;;;;;;4.60;1.90;;;35.20;1.00;;;;;;4979137;28;20461;-85
2022/05/18 13:23:02;;;;;;;4.73;1.90;;;35.40;1.00;;;;;;4977043;28;20453;-84